sensor_id;sensor_type;location;lat;lon;timestamp;temperature;humidity
81630;DHT22;71039;49.500;10.418;2023-08-17T00:01:49;25.60;54.30
81630;DHT22;71039;49.500;10.418;2023-08-17T00:04:15;25.60;54.40
81630;DHT22;71039;49.500;10.418;2023-08-17T00:06:40;25.60;54.50
81630;DHT22;71039;49.500;10.418;2023-08-17T00:09:06;25.50;54.60
81630;DHT22;71039;49.500;10.418;2023-08-17T00:11:32;25.50;54.70
81630;DHT22;71039;49.500;10.418;2023-08-17T00:13:58;25.50;54.80
81630;DHT22;71039;49.500;10.418;2023-08-17T00:16:24;25.50;54.90
81630;DHT22;71039;49.500;10.418;2023-08-17T00:18:49;25.40;55.00
81630;DHT22;71039;49.500;10.418;2023-08-17T00:21:15;25.40;55.10
81630;DHT22;71039;49.500;10.418;2023-08-17T00:23:40;25.30;55.20
81630;DHT22;71039;49.500;10.418;2023-08-17T00:26:06;25.30;55.30
81630;DHT22;71039;49.500;10.418;2023-08-17T00:28:32;25.30;55.40
81630;DHT22;71039;49.500;10.418;2023-08-17T00:30:57;25.30;55.50
81630;DHT22;71039;49.500;10.418;2023-08-17T00:33:23;25.30;55.60
81630;DHT22;71039;49.500;10.418;2023-08-17T00:35:48;25.30;55.70
81630;DHT22;71039;49.500;10.418;2023-08-17T00:38:14;25.20;55.80
81630;DHT22;71039;49.500;10.418;2023-08-17T00:40:39;25.20;55.80
81630;DHT22;71039;49.500;10.418;2023-08-17T00:43:07;25.20;55.90
81630;DHT22;71039;49.500;10.418;2023-08-17T00:45:32;25.20;56.00
81630;DHT22;71039;49.500;10.418;2023-08-17T00:47:58;25.20;56.00
81630;DHT22;71039;49.500;10.418;2023-08-17T00:50:25;25.10;56.00
81630;DHT22;71039;49.500;10.418;2023-08-17T00:52:53;25.00;56.10
81630;DHT22;71039;49.500;10.418;2023-08-17T00:55:19;25.00;56.20
81630;DHT22;71039;49.500;10.418;2023-08-17T00:57:45;25.00;56.20
81630;DHT22;71039;49.500;10.418;2023-08-17T01:00:12;25.00;56.30
81630;DHT22;71039;49.500;10.418;2023-08-17T01:02:38;25.00;56.40
81630;DHT22;71039;49.500;10.418;2023-08-17T01:05:04;25.00;56.30
81630;DHT22;71039;49.500;10.418;2023-08-17T01:07:30;24.90;56.30
81630;DHT22;71039;49.500;10.418;2023-08-17T01:09:55;24.80;56.30
81630;DHT22;71039;49.500;10.418;2023-08-17T01:12:32;24.80;56.40
81630;DHT22;71039;49.500;10.418;2023-08-17T01:15:08;24.70;56.90
81630;DHT22;71039;49.500;10.418;2023-08-17T01:17:52;24.70;56.90
81630;DHT22;71039;49.500;10.418;2023-08-17T01:20:19;24.70;57.10
81630;DHT22;71039;49.500;10.418;2023-08-17T01:22:47;24.60;56.70
81630;DHT22;71039;49.500;10.418;2023-08-17T01:25:13;24.60;56.80
81630;DHT22;71039;49.500;10.418;2023-08-17T01:27:45;24.50;56.80
81630;DHT22;71039;49.500;10.418;2023-08-17T01:30:13;24.50;57.00
81630;DHT22;71039;49.500;10.418;2023-08-17T01:32:58;24.50;56.80
81630;DHT22;71039;49.500;10.418;2023-08-17T01:35:38;24.40;57.50
81630;DHT22;71039;49.500;10.418;2023-08-17T01:38:12;24.40;57.30
81630;DHT22;71039;49.500;10.418;2023-08-17T01:40:40;24.40;57.00
81630;DHT22;71039;49.500;10.418;2023-08-17T01:43:07;24.30;56.80
81630;DHT22;71039;49.500;10.418;2023-08-17T01:45:33;24.20;56.80
81630;DHT22;71039;49.500;10.418;2023-08-17T01:48:00;24.20;56.80
81630;DHT22;71039;49.500;10.418;2023-08-17T01:50:26;24.20;56.90
81630;DHT22;71039;49.500;10.418;2023-08-17T01:52:51;24.00;57.00
81630;DHT22;71039;49.500;10.418;2023-08-17T01:55:17;24.00;57.10
81630;DHT22;71039;49.500;10.418;2023-08-17T01:57:43;24.00;57.20
81630;DHT22;71039;49.500;10.418;2023-08-17T02:00:09;23.90;57.20
81630;DHT22;71039;49.500;10.418;2023-08-17T02:02:39;23.90;57.20
81630;DHT22;71039;49.500;10.418;2023-08-17T02:05:05;23.80;57.30
81630;DHT22;71039;49.500;10.418;2023-08-17T02:07:31;23.80;57.50
81630;DHT22;71039;49.500;10.418;2023-08-17T02:09:56;23.70;57.60
81630;DHT22;71039;49.500;10.418;2023-08-17T02:12:22;23.60;57.70
81630;DHT22;71039;49.500;10.418;2023-08-17T02:14:47;23.60;57.70
81630;DHT22;71039;49.500;10.418;2023-08-17T02:17:13;23.60;57.70
81630;DHT22;71039;49.500;10.418;2023-08-17T02:19:38;23.50;57.80
81630;DHT22;71039;49.500;10.418;2023-08-17T02:22:04;23.50;57.80
81630;DHT22;71039;49.500;10.418;2023-08-17T02:24:30;23.50;57.80
81630;DHT22;71039;49.500;10.418;2023-08-17T02:26:56;23.40;57.80
81630;DHT22;71039;49.500;10.418;2023-08-17T02:29:22;23.40;57.90
81630;DHT22;71039;49.500;10.418;2023-08-17T02:31:48;23.40;58.00
81630;DHT22;71039;49.500;10.418;2023-08-17T02:34:13;23.30;58.00
81630;DHT22;71039;49.500;10.418;2023-08-17T02:36:39;23.30;58.10
81630;DHT22;71039;49.500;10.418;2023-08-17T02:39:04;23.20;58.20
81630;DHT22;71039;49.500;10.418;2023-08-17T02:41:30;23.20;58.20
81630;DHT22;71039;49.500;10.418;2023-08-17T02:43:56;23.10;58.30
81630;DHT22;71039;49.500;10.418;2023-08-17T02:46:21;23.10;58.40
81630;DHT22;71039;49.500;10.418;2023-08-17T02:48:47;23.00;58.40
81630;DHT22;71039;49.500;10.418;2023-08-17T02:51:12;23.00;58.50
81630;DHT22;71039;49.500;10.418;2023-08-17T02:53:38;23.00;58.50
81630;DHT22;71039;49.500;10.418;2023-08-17T02:56:03;22.90;58.60
81630;DHT22;71039;49.500;10.418;2023-08-17T02:58:29;22.90;58.60
81630;DHT22;71039;49.500;10.418;2023-08-17T03:00:54;22.80;58.70
81630;DHT22;71039;49.500;10.418;2023-08-17T03:03:20;22.80;58.70
81630;DHT22;71039;49.500;10.418;2023-08-17T03:05:45;22.70;58.80
81630;DHT22;71039;49.500;10.418;2023-08-17T03:08:11;22.70;58.90
81630;DHT22;71039;49.500;10.418;2023-08-17T03:10:37;22.60;58.90
81630;DHT22;71039;49.500;10.418;2023-08-17T03:13:03;22.60;59.00
81630;DHT22;71039;49.500;10.418;2023-08-17T03:15:29;22.60;59.00
81630;DHT22;71039;49.500;10.418;2023-08-17T03:17:55;22.50;59.10
81630;DHT22;71039;49.500;10.418;2023-08-17T03:20:21;22.50;59.10
81630;DHT22;71039;49.500;10.418;2023-08-17T03:22:46;22.50;59.20
81630;DHT22;71039;49.500;10.418;2023-08-17T03:25:12;22.30;59.30
81630;DHT22;71039;49.500;10.418;2023-08-17T03:27:40;22.30;59.40
81630;DHT22;71039;49.500;10.418;2023-08-17T03:30:06;22.30;59.40
81630;DHT22;71039;49.500;10.418;2023-08-17T03:32:32;22.20;59.50
81630;DHT22;71039;49.500;10.418;2023-08-17T03:34:57;22.20;59.60
81630;DHT22;71039;49.500;10.418;2023-08-17T03:37:23;22.10;59.70
81630;DHT22;71039;49.500;10.418;2023-08-17T03:39:49;22.10;59.80
81630;DHT22;71039;49.500;10.418;2023-08-17T03:42:14;22.00;59.90
81630;DHT22;71039;49.500;10.418;2023-08-17T03:44:40;22.00;60.00
81630;DHT22;71039;49.500;10.418;2023-08-17T03:47:05;21.90;60.10
81630;DHT22;71039;49.500;10.418;2023-08-17T03:49:32;21.90;60.30
81630;DHT22;71039;49.500;10.418;2023-08-17T03:51:57;21.90;60.30
81630;DHT22;71039;49.500;10.418;2023-08-17T03:54:23;21.90;60.40
81630;DHT22;71039;49.500;10.418;2023-08-17T03:56:49;21.90;60.50
81630;DHT22;71039;49.500;10.418;2023-08-17T03:59:14;21.80;60.60
81630;DHT22;71039;49.500;10.418;2023-08-17T04:01:40;21.80;60.70
81630;DHT22;71039;49.500;10.418;2023-08-17T04:04:07;21.70;60.80
81630;DHT22;71039;49.500;10.418;2023-08-17T04:06:32;21.70;60.90
81630;DHT22;71039;49.500;10.418;2023-08-17T04:08:58;21.70;61.00
81630;DHT22;71039;49.500;10.418;2023-08-17T04:11:23;21.70;61.00
81630;DHT22;71039;49.500;10.418;2023-08-17T04:13:49;21.70;61.10
81630;DHT22;71039;49.500;10.418;2023-08-17T04:16:15;21.70;61.20
81630;DHT22;71039;49.500;10.418;2023-08-17T04:18:40;21.70;61.20
81630;DHT22;71039;49.500;10.418;2023-08-17T04:21:06;21.70;61.30
81630;DHT22;71039;49.500;10.418;2023-08-17T04:23:31;21.60;61.30
81630;DHT22;71039;49.500;10.418;2023-08-17T04:25:57;21.60;61.40
81630;DHT22;71039;49.500;10.418;2023-08-17T04:28:23;21.60;61.40
81630;DHT22;71039;49.500;10.418;2023-08-17T04:30:50;21.50;61.50
81630;DHT22;71039;49.500;10.418;2023-08-17T04:33:15;21.50;61.40
81630;DHT22;71039;49.500;10.418;2023-08-17T04:35:41;21.50;61.40
81630;DHT22;71039;49.500;10.418;2023-08-17T04:38:07;21.50;61.40
81630;DHT22;71039;49.500;10.418;2023-08-17T04:40:33;21.50;61.40
81630;DHT22;71039;49.500;10.418;2023-08-17T04:42:59;21.50;61.40
81630;DHT22;71039;49.500;10.418;2023-08-17T04:45:26;21.50;61.50
81630;DHT22;71039;49.500;10.418;2023-08-17T04:47:52;21.40;61.50
81630;DHT22;71039;49.500;10.418;2023-08-17T04:50:17;21.40;61.60
81630;DHT22;71039;49.500;10.418;2023-08-17T04:52:44;21.40;61.80
81630;DHT22;71039;49.500;10.418;2023-08-17T04:55:09;21.30;61.90
81630;DHT22;71039;49.500;10.418;2023-08-17T04:57:35;21.30;62.10
81630;DHT22;71039;49.500;10.418;2023-08-17T05:00:01;21.30;62.20
81630;DHT22;71039;49.500;10.418;2023-08-17T05:02:28;21.30;62.30
81630;DHT22;71039;49.500;10.418;2023-08-17T05:04:53;21.30;63.00
81630;DHT22;71039;49.500;10.418;2023-08-17T05:07:19;21.30;62.50
81630;DHT22;71039;49.500;10.418;2023-08-17T05:09:45;21.30;62.80
81630;DHT22;71039;49.500;10.418;2023-08-17T05:12:11;21.40;62.90
81630;DHT22;71039;49.500;10.418;2023-08-17T05:14:36;21.40;63.10
81630;DHT22;71039;49.500;10.418;2023-08-17T05:17:02;21.40;63.20
81630;DHT22;71039;49.500;10.418;2023-08-17T05:19:28;21.50;63.20
81630;DHT22;71039;49.500;10.418;2023-08-17T05:21:54;21.50;63.20
81630;DHT22;71039;49.500;10.418;2023-08-17T05:24:21;21.50;63.20
81630;DHT22;71039;49.500;10.418;2023-08-17T05:26:46;21.60;63.30
81630;DHT22;71039;49.500;10.418;2023-08-17T05:29:13;21.70;63.40
81630;DHT22;71039;49.500;10.418;2023-08-17T05:31:39;21.70;63.50
81630;DHT22;71039;49.500;10.418;2023-08-17T05:34:05;21.70;63.50
81630;DHT22;71039;49.500;10.418;2023-08-17T05:36:31;21.80;63.60
81630;DHT22;71039;49.500;10.418;2023-08-17T05:38:57;21.90;63.60
81630;DHT22;71039;49.500;10.418;2023-08-17T05:41:22;21.90;63.60
81630;DHT22;71039;49.500;10.418;2023-08-17T05:43:48;22.00;63.50
81630;DHT22;71039;49.500;10.418;2023-08-17T05:46:14;22.10;63.50
81630;DHT22;71039;49.500;10.418;2023-08-17T05:48:39;22.20;63.40
81630;DHT22;71039;49.500;10.418;2023-08-17T05:51:05;22.20;63.30
81630;DHT22;71039;49.500;10.418;2023-08-17T05:53:30;22.30;63.30
81630;DHT22;71039;49.500;10.418;2023-08-17T05:55:56;22.40;63.40
81630;DHT22;71039;49.500;10.418;2023-08-17T05:58:21;22.50;63.30
81630;DHT22;71039;49.500;10.418;2023-08-17T06:00:47;22.50;63.30
81630;DHT22;71039;49.500;10.418;2023-08-17T06:03:12;22.60;63.40
81630;DHT22;71039;49.500;10.418;2023-08-17T06:05:39;22.70;63.40
81630;DHT22;71039;49.500;10.418;2023-08-17T06:08:05;22.80;63.40
81630;DHT22;71039;49.500;10.418;2023-08-17T06:10:30;22.80;63.30
81630;DHT22;71039;49.500;10.418;2023-08-17T06:12:56;22.90;63.30
81630;DHT22;71039;49.500;10.418;2023-08-17T06:15:22;23.00;63.20
81630;DHT22;71039;49.500;10.418;2023-08-17T06:17:48;23.10;63.20
81630;DHT22;71039;49.500;10.418;2023-08-17T06:20:14;23.20;63.00
81630;DHT22;71039;49.500;10.418;2023-08-17T06:22:40;23.30;63.00
81630;DHT22;71039;49.500;10.418;2023-08-17T06:25:05;23.30;62.90
81630;DHT22;71039;49.500;10.418;2023-08-17T06:27:32;23.50;62.90
81630;DHT22;71039;49.500;10.418;2023-08-17T06:29:57;23.50;62.90
81630;DHT22;71039;49.500;10.418;2023-08-17T06:32:23;23.60;63.40
81630;DHT22;71039;49.500;10.418;2023-08-17T06:34:48;23.80;66.00
81630;DHT22;71039;49.500;10.418;2023-08-17T06:37:14;24.00;67.90
81630;DHT22;71039;49.500;10.418;2023-08-17T06:39:40;24.30;69.10
81630;DHT22;71039;49.500;10.418;2023-08-17T06:42:05;24.70;69.70
81630;DHT22;71039;49.500;10.418;2023-08-17T06:44:31;25.10;69.80
81630;DHT22;71039;49.500;10.418;2023-08-17T06:46:57;25.60;69.80
81630;DHT22;71039;49.500;10.418;2023-08-17T06:49:22;26.20;69.10
81630;DHT22;71039;49.500;10.418;2023-08-17T06:51:48;26.90;68.40
81630;DHT22;71039;49.500;10.418;2023-08-17T06:54:13;27.50;67.40
81630;DHT22;71039;49.500;10.418;2023-08-17T06:56:39;28.10;66.40
81630;DHT22;71039;49.500;10.418;2023-08-17T06:59:05;28.70;65.10
81630;DHT22;71039;49.500;10.418;2023-08-17T07:01:30;29.40;63.60
81630;DHT22;71039;49.500;10.418;2023-08-17T07:03:56;30.00;62.50
81630;DHT22;71039;49.500;10.418;2023-08-17T07:06:21;30.60;61.30
81630;DHT22;71039;49.500;10.418;2023-08-17T07:08:47;31.20;60.10
81630;DHT22;71039;49.500;10.418;2023-08-17T07:11:12;31.70;59.00
81630;DHT22;71039;49.500;10.418;2023-08-17T07:13:38;32.20;57.40
81630;DHT22;71039;49.500;10.418;2023-08-17T07:16:03;32.80;56.20
81630;DHT22;71039;49.500;10.418;2023-08-17T07:18:29;33.30;55.30
81630;DHT22;71039;49.500;10.418;2023-08-17T07:20:54;33.80;54.40
81630;DHT22;71039;49.500;10.418;2023-08-17T07:23:20;34.30;53.60
81630;DHT22;71039;49.500;10.418;2023-08-17T07:25:45;34.70;52.50
81630;DHT22;71039;49.500;10.418;2023-08-17T07:28:11;35.20;51.20
81630;DHT22;71039;49.500;10.418;2023-08-17T07:30:36;35.60;50.50
81630;DHT22;71039;49.500;10.418;2023-08-17T07:33:02;36.00;49.90
81630;DHT22;71039;49.500;10.418;2023-08-17T07:35:27;36.30;49.20
81630;DHT22;71039;49.500;10.418;2023-08-17T07:37:53;36.70;48.50
81630;DHT22;71039;49.500;10.418;2023-08-17T07:40:18;37.00;47.70
81630;DHT22;71039;49.500;10.418;2023-08-17T07:42:45;37.40;47.20
81630;DHT22;71039;49.500;10.418;2023-08-17T07:45:11;37.70;46.70
81630;DHT22;71039;49.500;10.418;2023-08-17T07:47:36;38.10;46.10
81630;DHT22;71039;49.500;10.418;2023-08-17T07:50:04;38.30;45.60
81630;DHT22;71039;49.500;10.418;2023-08-17T07:52:29;38.70;44.90
81630;DHT22;71039;49.500;10.418;2023-08-17T07:54:55;39.00;44.60
81630;DHT22;71039;49.500;10.418;2023-08-17T07:57:20;39.30;44.20
81630;DHT22;71039;49.500;10.418;2023-08-17T07:59:46;39.70;43.70
81630;DHT22;71039;49.500;10.418;2023-08-17T08:02:11;40.00;43.20
81630;DHT22;71039;49.500;10.418;2023-08-17T08:04:37;40.20;42.80
81630;DHT22;71039;49.500;10.418;2023-08-17T08:07:02;40.50;42.20
81630;DHT22;71039;49.500;10.418;2023-08-17T08:09:28;40.80;41.90
81630;DHT22;71039;49.500;10.418;2023-08-17T08:11:53;41.00;41.30
81630;DHT22;71039;49.500;10.418;2023-08-17T08:14:19;41.30;41.00
81630;DHT22;71039;49.500;10.418;2023-08-17T08:16:44;41.50;40.50
81630;DHT22;71039;49.500;10.418;2023-08-17T08:19:10;41.80;39.70
81630;DHT22;71039;49.500;10.418;2023-08-17T08:21:35;42.00;39.50
81630;DHT22;71039;49.500;10.418;2023-08-17T08:24:01;42.20;39.10
81630;DHT22;71039;49.500;10.418;2023-08-17T08:26:26;42.20;38.60
81630;DHT22;71039;49.500;10.418;2023-08-17T08:28:52;42.40;38.40
81630;DHT22;71039;49.500;10.418;2023-08-17T08:31:17;42.50;38.00
81630;DHT22;71039;49.500;10.418;2023-08-17T08:33:43;42.60;37.60
81630;DHT22;71039;49.500;10.418;2023-08-17T08:36:09;42.70;37.00
81630;DHT22;71039;49.500;10.418;2023-08-17T08:38:34;42.80;36.80
81630;DHT22;71039;49.500;10.418;2023-08-17T08:41:02;42.80;36.70
81630;DHT22;71039;49.500;10.418;2023-08-17T08:43:27;42.80;36.60
81630;DHT22;71039;49.500;10.418;2023-08-17T08:45:54;42.80;36.70
81630;DHT22;71039;49.500;10.418;2023-08-17T08:48:22;42.90;36.40
81630;DHT22;71039;49.500;10.418;2023-08-17T08:50:48;43.00;35.70
81630;DHT22;71039;49.500;10.418;2023-08-17T08:53:17;43.00;35.80
81630;DHT22;71039;49.500;10.418;2023-08-17T08:56:03;43.00;35.90
81630;DHT22;71039;49.500;10.418;2023-08-17T08:58:29;43.00;35.40
81630;DHT22;71039;49.500;10.418;2023-08-17T09:00:57;43.00;35.80
81630;DHT22;71039;49.500;10.418;2023-08-17T09:03:24;43.10;35.50
81630;DHT22;71039;49.500;10.418;2023-08-17T09:05:50;43.10;35.10
81630;DHT22;71039;49.500;10.418;2023-08-17T09:08:22;43.10;35.10
81630;DHT22;71039;49.500;10.418;2023-08-17T09:10:48;43.10;34.70
81630;DHT22;71039;49.500;10.418;2023-08-17T09:13:14;43.00;35.00
81630;DHT22;71039;49.500;10.418;2023-08-17T09:15:40;43.00;35.10
81630;DHT22;71039;49.500;10.418;2023-08-17T09:18:06;43.00;35.10
81630;DHT22;71039;49.500;10.418;2023-08-17T09:20:51;43.00;35.20
81630;DHT22;71039;49.500;10.418;2023-08-17T09:23:19;43.00;34.50
81630;DHT22;71039;49.500;10.418;2023-08-17T09:25:45;43.00;35.10
81630;DHT22;71039;49.500;10.418;2023-08-17T09:28:13;43.00;34.80
81630;DHT22;71039;49.500;10.418;2023-08-17T09:31:02;43.00;34.40
81630;DHT22;71039;49.500;10.418;2023-08-17T09:33:29;43.00;33.50
81630;DHT22;71039;49.500;10.418;2023-08-17T09:35:56;43.00;33.70
81630;DHT22;71039;49.500;10.418;2023-08-17T09:38:22;42.80;33.10
81630;DHT22;71039;49.500;10.418;2023-08-17T09:40:48;42.70;32.90
81630;DHT22;71039;49.500;10.418;2023-08-17T09:43:15;42.40;32.60
81630;DHT22;71039;49.500;10.418;2023-08-17T09:45:42;42.10;32.60
81630;DHT22;71039;49.500;10.418;2023-08-17T09:48:08;41.80;32.60
81630;DHT22;71039;49.500;10.418;2023-08-17T09:50:34;41.40;32.80
81630;DHT22;71039;49.500;10.418;2023-08-17T09:53:02;41.10;33.10
81630;DHT22;71039;49.500;10.418;2023-08-17T09:55:29;40.80;33.40
81630;DHT22;71039;49.500;10.418;2023-08-17T09:57:55;40.50;33.70
81630;DHT22;71039;49.500;10.418;2023-08-17T10:00:21;40.20;33.90
81630;DHT22;71039;49.500;10.418;2023-08-17T10:02:50;40.00;34.10
81630;DHT22;71039;49.500;10.418;2023-08-17T10:05:19;39.70;34.30
81630;DHT22;71039;49.500;10.418;2023-08-17T10:07:48;39.60;34.30
81630;DHT22;71039;49.500;10.418;2023-08-17T10:10:18;39.40;34.40
81630;DHT22;71039;49.500;10.418;2023-08-17T10:16:03;39.00;34.70
81630;DHT22;71039;49.500;10.418;2023-08-17T10:18:55;38.90;34.70
81630;DHT22;71039;49.500;10.418;2023-08-17T10:21:39;38.70;34.30
81630;DHT22;71039;49.500;10.418;2023-08-17T10:24:07;38.50;34.80
81630;DHT22;71039;49.500;10.418;2023-08-17T10:26:33;38.40;35.10
81630;DHT22;71039;49.500;10.418;2023-08-17T10:28:59;38.30;35.00
81630;DHT22;71039;49.500;10.418;2023-08-17T10:31:25;38.20;35.10
81630;DHT22;71039;49.500;10.418;2023-08-17T10:33:51;38.10;35.20
81630;DHT22;71039;49.500;10.418;2023-08-17T10:36:17;38.00;35.30
81630;DHT22;71039;49.500;10.418;2023-08-17T10:38:43;37.90;35.50
81630;DHT22;71039;49.500;10.418;2023-08-17T10:41:13;37.80;35.60
81630;DHT22;71039;49.500;10.418;2023-08-17T10:43:59;37.70;35.70
81630;DHT22;71039;49.500;10.418;2023-08-17T10:46:35;37.50;35.80
81630;DHT22;71039;49.500;10.418;2023-08-17T10:49:04;37.50;35.80
81630;DHT22;71039;49.500;10.418;2023-08-17T10:51:30;37.50;36.00
81630;DHT22;71039;49.500;10.418;2023-08-17T10:53:58;37.40;36.10
81630;DHT22;71039;49.500;10.418;2023-08-17T10:56:27;37.30;36.40
81630;DHT22;71039;49.500;10.418;2023-08-17T10:58:53;37.30;36.50
81630;DHT22;71039;49.500;10.418;2023-08-17T11:01:35;37.30;36.60
81630;DHT22;71039;49.500;10.418;2023-08-17T11:04:12;37.30;36.10
81630;DHT22;71039;49.500;10.418;2023-08-17T11:06:38;37.30;35.90
81630;DHT22;71039;49.500;10.418;2023-08-17T11:09:07;37.30;36.20
81630;DHT22;71039;49.500;10.418;2023-08-17T11:11:32;37.20;36.10
81630;DHT22;71039;49.500;10.418;2023-08-17T11:13:58;37.20;36.00
81630;DHT22;71039;49.500;10.418;2023-08-17T11:16:24;37.10;36.00
81630;DHT22;71039;49.500;10.418;2023-08-17T11:18:49;37.10;36.20
81630;DHT22;71039;49.500;10.418;2023-08-17T11:21:15;37.00;36.30
81630;DHT22;71039;49.500;10.418;2023-08-17T11:23:41;37.00;36.10
81630;DHT22;71039;49.500;10.418;2023-08-17T11:26:07;37.00;36.30
81630;DHT22;71039;49.500;10.418;2023-08-17T11:28:33;36.90;36.40
81630;DHT22;71039;49.500;10.418;2023-08-17T11:31:00;36.90;36.30
81630;DHT22;71039;49.500;10.418;2023-08-17T11:33:26;36.90;36.50
81630;DHT22;71039;49.500;10.418;2023-08-17T11:35:54;36.90;36.50
81630;DHT22;71039;49.500;10.418;2023-08-17T11:38:20;36.90;36.60
81630;DHT22;71039;49.500;10.418;2023-08-17T11:40:45;36.90;36.80
81630;DHT22;71039;49.500;10.418;2023-08-17T11:43:11;37.00;36.90
81630;DHT22;71039;49.500;10.418;2023-08-17T11:45:36;37.00;36.80
81630;DHT22;71039;49.500;10.418;2023-08-17T11:48:02;37.10;37.00
81630;DHT22;71039;49.500;10.418;2023-08-17T11:50:28;37.20;36.90
81630;DHT22;71039;49.500;10.418;2023-08-17T11:52:53;37.30;36.80
81630;DHT22;71039;49.500;10.418;2023-08-17T11:55:19;37.40;36.50
81630;DHT22;71039;49.500;10.418;2023-08-17T11:57:44;37.50;36.50
81630;DHT22;71039;49.500;10.418;2023-08-17T12:00:16;37.50;36.50
81630;DHT22;71039;49.500;10.418;2023-08-17T12:02:41;37.60;36.50
81630;DHT22;71039;49.500;10.418;2023-08-17T12:05:07;37.70;36.60
81630;DHT22;71039;49.500;10.418;2023-08-17T12:07:33;37.80;36.60
81630;DHT22;71039;49.500;10.418;2023-08-17T12:09:59;37.90;36.50
81630;DHT22;71039;49.500;10.418;2023-08-17T12:12:24;38.00;36.10
81630;DHT22;71039;49.500;10.418;2023-08-17T12:14:50;38.00;35.90
81630;DHT22;71039;49.500;10.418;2023-08-17T12:17:17;38.10;35.90
81630;DHT22;71039;49.500;10.418;2023-08-17T12:19:44;38.10;35.70
81630;DHT22;71039;49.500;10.418;2023-08-17T12:22:09;38.10;35.50
81630;DHT22;71039;49.500;10.418;2023-08-17T12:24:35;38.10;35.70
81630;DHT22;71039;49.500;10.418;2023-08-17T12:27:05;38.30;35.50
81630;DHT22;71039;49.500;10.418;2023-08-17T12:29:31;38.30;35.00
81630;DHT22;71039;49.500;10.418;2023-08-17T12:31:57;38.30;35.10
81630;DHT22;71039;49.500;10.418;2023-08-17T12:34:23;38.30;35.00
81630;DHT22;71039;49.500;10.418;2023-08-17T12:36:49;38.30;34.80
81630;DHT22;71039;49.500;10.418;2023-08-17T12:39:14;38.20;34.90
81630;DHT22;71039;49.500;10.418;2023-08-17T12:41:40;38.20;34.70
81630;DHT22;71039;49.500;10.418;2023-08-17T12:44:06;38.10;34.70
81630;DHT22;71039;49.500;10.418;2023-08-17T12:46:31;38.10;34.60
81630;DHT22;71039;49.500;10.418;2023-08-17T12:48:57;38.10;34.60
81630;DHT22;71039;49.500;10.418;2023-08-17T12:51:22;38.10;34.40
81630;DHT22;71039;49.500;10.418;2023-08-17T12:53:48;38.00;34.60
81630;DHT22;71039;49.500;10.418;2023-08-17T12:56:13;37.90;34.60
81630;DHT22;71039;49.500;10.418;2023-08-17T12:58:39;37.90;34.70
81630;DHT22;71039;49.500;10.418;2023-08-17T13:01:04;37.80;34.80
81630;DHT22;71039;49.500;10.418;2023-08-17T13:03:30;37.70;34.90
81630;DHT22;71039;49.500;10.418;2023-08-17T13:05:55;37.60;34.80
81630;DHT22;71039;49.500;10.418;2023-08-17T13:08:21;37.50;34.80
81630;DHT22;71039;49.500;10.418;2023-08-17T13:10:46;37.50;34.70
81630;DHT22;71039;49.500;10.418;2023-08-17T13:13:12;37.30;34.90
81630;DHT22;71039;49.500;10.418;2023-08-17T13:15:38;37.20;34.80
81630;DHT22;71039;49.500;10.418;2023-08-17T13:18:03;37.10;34.90
81630;DHT22;71039;49.500;10.418;2023-08-17T13:20:29;36.90;35.10
81630;DHT22;71039;49.500;10.418;2023-08-17T13:22:55;36.90;35.30
81630;DHT22;71039;49.500;10.418;2023-08-17T13:25:20;36.70;35.40
81630;DHT22;71039;49.500;10.418;2023-08-17T13:27:46;36.70;35.50
81630;DHT22;71039;49.500;10.418;2023-08-17T13:30:12;36.60;35.50
81630;DHT22;71039;49.500;10.418;2023-08-17T13:32:37;36.50;35.60
81630;DHT22;71039;49.500;10.418;2023-08-17T13:35:03;36.50;35.60
81630;DHT22;71039;49.500;10.418;2023-08-17T13:37:29;36.40;35.60
81630;DHT22;71039;49.500;10.418;2023-08-17T13:39:55;36.30;35.70
81630;DHT22;71039;49.500;10.418;2023-08-17T13:42:20;36.20;35.80
81630;DHT22;71039;49.500;10.418;2023-08-17T13:44:46;36.10;35.90
81630;DHT22;71039;49.500;10.418;2023-08-17T13:47:12;36.00;35.90
81630;DHT22;71039;49.500;10.418;2023-08-17T13:49:37;35.90;35.90
81630;DHT22;71039;49.500;10.418;2023-08-17T13:52:03;35.80;36.00
81630;DHT22;71039;49.500;10.418;2023-08-17T13:54:29;35.70;36.10
81630;DHT22;71039;49.500;10.418;2023-08-17T13:56:55;35.60;36.40
81630;DHT22;71039;49.500;10.418;2023-08-17T13:59:21;35.40;36.60
81630;DHT22;71039;49.500;10.418;2023-08-17T14:01:47;35.30;36.80
81630;DHT22;71039;49.500;10.418;2023-08-17T14:04:12;35.10;37.20
81630;DHT22;71039;49.500;10.418;2023-08-17T14:06:38;35.00;37.30
81630;DHT22;71039;49.500;10.418;2023-08-17T14:09:04;34.80;37.20
81630;DHT22;71039;49.500;10.418;2023-08-17T14:11:30;34.60;37.20
81630;DHT22;71039;49.500;10.418;2023-08-17T14:13:56;34.40;37.40
81630;DHT22;71039;49.500;10.418;2023-08-17T14:16:21;34.00;37.50
81630;DHT22;71039;49.500;10.418;2023-08-17T14:18:47;33.70;37.70
81630;DHT22;71039;49.500;10.418;2023-08-17T14:21:12;33.30;37.80
81630;DHT22;71039;49.500;10.418;2023-08-17T14:23:38;32.80;38.00
81630;DHT22;71039;49.500;10.418;2023-08-17T14:26:04;32.40;38.40
81630;DHT22;71039;49.500;10.418;2023-08-17T14:28:30;31.80;38.40
81630;DHT22;71039;49.500;10.418;2023-08-17T14:30:55;31.20;38.70
81630;DHT22;71039;49.500;10.418;2023-08-17T14:33:21;30.70;39.10
81630;DHT22;71039;49.500;10.418;2023-08-17T14:35:47;30.10;39.80
81630;DHT22;71039;49.500;10.418;2023-08-17T14:38:12;29.50;40.30
81630;DHT22;71039;49.500;10.418;2023-08-17T14:40:42;29.10;40.50
81630;DHT22;71039;49.500;10.418;2023-08-17T14:43:08;28.60;41.10
81630;DHT22;71039;49.500;10.418;2023-08-17T14:45:33;28.10;41.60
81630;DHT22;71039;49.500;10.418;2023-08-17T14:47:59;27.70;42.30
81630;DHT22;71039;49.500;10.418;2023-08-17T14:50:25;27.20;42.90
81630;DHT22;71039;49.500;10.418;2023-08-17T14:52:50;26.80;43.50
81630;DHT22;71039;49.500;10.418;2023-08-17T14:55:16;26.40;44.40
81630;DHT22;71039;49.500;10.418;2023-08-17T14:57:41;26.00;44.90
81630;DHT22;71039;49.500;10.418;2023-08-17T15:00:08;25.70;45.20
81630;DHT22;71039;49.500;10.418;2023-08-17T15:02:34;25.30;45.70
81630;DHT22;71039;49.500;10.418;2023-08-17T15:04:59;25.00;46.10
81630;DHT22;71039;49.500;10.418;2023-08-17T15:07:25;24.70;46.70
81630;DHT22;71039;49.500;10.418;2023-08-17T15:09:50;24.50;47.30
81630;DHT22;71039;49.500;10.418;2023-08-17T15:12:16;24.20;48.00
81630;DHT22;71039;49.500;10.418;2023-08-17T15:14:41;24.10;48.60